createdAt,value
2022-12-15T00:00:00.000Z,5.1
2022-12-15T00:15:00.000Z,5.07
2022-12-15T00:30:00.000Z,5.11
2022-12-15T00:45:00.000Z,5.26
2022-12-15T01:00:00.000Z,5.21
2022-12-15T01:15:00.000Z,5.4
2022-12-15T01:30:00.000Z,5.37
2022-12-15T01:45:00.000Z,5.18
2022-12-15T02:00:00.000Z,5.08
2022-12-15T02:15:00.000Z,4.96
2022-12-15T02:30:00.000Z,4.89
2022-12-15T02:45:00.000Z,4.86
2022-12-15T03:00:00.000Z,4.78
2022-12-15T03:15:00.000Z,4.79
2022-12-15T03:30:00.000Z,4.71
2022-12-15T03:45:00.000Z,4.62
2022-12-15T04:00:00.000Z,4.53
2022-12-15T04:15:00.000Z,4.5
2022-12-15T04:30:00.000Z,4.56
2022-12-15T04:45:00.000Z,4.47
2022-12-15T05:00:00.000Z,4.45
2022-12-15T05:15:00.000Z,4.43
2022-12-15T05:30:00.000Z,4.31
2022-12-15T05:45:00.000Z,4.3
2022-12-15T06:00:00.000Z,4.33
2022-12-15T06:15:00.000Z,4.3
2022-12-15T06:30:00.000Z,4.18
2022-12-15T06:45:00.000Z,4.23
2022-12-15T07:00:00.000Z,4.25
2022-12-15T07:15:00.000Z,4.18
2022-12-15T07:30:00.000Z,4.09
2022-12-15T07:45:00.000Z,4.26
2022-12-15T08:00:00.000Z,4.39
2022-12-15T08:15:00.000Z,4.4
2022-12-15T08:30:00.000Z,4.23
2022-12-15T08:45:00.000Z,4.11
2022-12-15T09:00:00.000Z,3.79
2022-12-15T09:15:00.000Z,3.44
2022-12-15T09:30:00.000Z,2.76
2022-12-15T09:45:00.000Z,2.68
2022-12-15T10:00:00.000Z,2.77
2022-12-15T10:15:00.000Z,2.92
2022-12-15T10:30:00.000Z,2.77
2022-12-15T10:45:00.000Z,2.68
2022-12-15T11:00:00.000Z,2.56
2022-12-15T11:15:00.000Z,2.49
2022-12-15T11:30:00.000Z,2.83
2022-12-15T11:45:00.000Z,2.99
2022-12-15T12:00:00.000Z,3.08
2022-12-15T12:15:00.000Z,3.15
2022-12-15T12:30:00.000Z,3.2
2022-12-15T12:45:00.000Z,3.14
2022-12-15T13:00:00.000Z,2.81
2022-12-15T13:15:00.000Z,2.75
2022-12-15T13:30:00.000Z,2.87
2022-12-15T13:45:00.000Z,2.8
2022-12-15T14:00:00.000Z,2.71
2022-12-15T14:15:00.000Z,2.61
2022-12-15T14:30:00.000Z,2.47
2022-12-15T14:45:00.000Z,2.39
2022-12-15T15:00:00.000Z,2.43
2022-12-15T15:15:00.000Z,2.38
2022-12-15T15:30:00.000Z,2.37
2022-12-15T15:45:00.000Z,2.41
2022-12-15T16:00:00.000Z,2.44
2022-12-15T16:15:00.000Z,2.43
2022-12-15T16:30:00.000Z,2.39
2022-12-15T16:45:00.000Z,2.36
2022-12-15T17:00:00.000Z,2.44
2022-12-15T17:15:00.000Z,2.43
2022-12-15T17:30:00.000Z,2.29
2022-12-15T17:45:00.000Z,2.58
2022-12-15T18:00:00.000Z,2.51
2022-12-15T18:15:00.000Z,2.63
2022-12-15T18:30:00.000Z,2.6
2022-12-15T18:45:00.000Z,2.56
2022-12-15T19:00:00.000Z,2.92
2022-12-15T19:15:00.000Z,2.83
2022-12-15T19:30:00.000Z,2.7
2022-12-15T19:45:00.000Z,2.81
2022-12-15T20:00:00.000Z,2.52
2022-12-15T20:15:00.000Z,2.45
2022-12-15T20:30:00.000Z,2.41
2022-12-15T20:45:00.000Z,2.36
2022-12-15T21:00:00.000Z,2.37
2022-12-15T21:15:00.000Z,2.31
2022-12-15T21:30:00.000Z,2.37
2022-12-15T21:45:00.000Z,2.45
2022-12-15T22:00:00.000Z,2.48
2022-12-15T22:15:00.000Z,2.5
2022-12-15T22:30:00.000Z,2.47
2022-12-15T22:45:00.000Z,2.52
2022-12-15T23:00:00.000Z,2.47
2022-12-15T23:15:00.000Z,2.55
2022-12-15T23:30:00.000Z,2.64
2022-12-15T23:45:00.000Z,2.62
